Latest Weather Observations for Point Stuart

IDD60901

Issued at 10:01 am CST Friday 22 September 2017 (issued every 10 minutes, with the page automatically refreshed every 10 minutes)

About weather observations | Map of Darwin area stations | Latest observations for Darwin area | Other Formats
Station Details ID: 014254 Name: POINT STUART Lat: -12.24 Lon: 131.88 Height: 1.0 m
Data from the previous 72 hours. | See also: Recent months at Point Stuart
Date/Time
CST
Temp
°C
App
Temp
°C
Dew
Point
°C
Rel
Hum
%
Delta-T
°C
Wind Press
QNH
hPa
Press
MSL
hPa
Rain since
9am
mm
Dir  Spd
km/h
Gust
km/h
Spd
kts
Gust
kts
22/10:00am 30.8 - - - - ENE 20 30 11 16 1013.7 - 0.0
22/09:30am 30.0 - - - - ENE 19 26 10 14 1013.8 - 0.0
22/09:00am 29.1 - - - - ENE 17 24 9 13 1013.9 1013.9 0.0
22/08:30am 28.6 - - - - ENE 17 22 9 12 1013.4 - 0.0
22/08:00am 26.8 - - - - ESE 9 13 5 7 1013.0 - 0.0
22/07:30am 25.5 - - - - SE 9 11 5 6 1012.9 - 0.0
22/07:00am 23.6 - - - - SSE 4 7 2 4 1012.6 - 0.0
22/06:30am 23.1 - - - - CALM 0 0 0 0 1012.2 - 0.0
22/06:00am 23.7 - - - - S 6 7 3 4 1011.9 1011.9 0.0
22/05:30am 23.8 - - - - S 6 7 3 4 1011.7 - 0.0
22/05:00am 24.2 - - - - S 6 7 3 4 1011.5 - 0.0
22/04:30am 24.9 - - - - S 6 7 3 4 1011.4 - 0.0
22/04:00am 25.3 - - - - S 6 7 3 4 1011.4 - 0.0
22/03:30am 25.4 - - - - ENE 6 7 3 4 1011.5 - 0.0
22/03:00am 25.5 - - - - NNE 7 9 4 5 1011.5 1011.5 0.0
22/02:30am 25.9 - - - - NNE 7 9 4 5 1011.8 - 0.0
22/02:00am 26.0 - - - - NNE 7 9 4 5 1011.9 - 0.0
22/01:00am 26.2 - - - - NNE 9 15 5 8 1011.8 - 0.0
22/12:30am 25.9 - - - - NNE 6 7 3 4 1011.9 - 0.0
22/12:00am 26.5 - - - - NNE 9 13 5 7 1011.9 1011.9 0.0
 
Date/Time
CST
Temp
°C
App
Temp
°C
Dew
Point
°C
Rel
Hum
%
Delta-T
°C
Wind Press
QNH
hPa
Press
MSL
hPa
Rain since
9am
mm
Dir  Spd
km/h
Gust
km/h
Spd
kts
Gust
kts
21/11:30pm 26.5 - - - - NNE 7 11 4 6 1011.9 - 0.0
21/11:00pm 26.7 - - - - NNE 11 15 6 8 1011.8 - 0.0
21/10:30pm 26.9 - - - - NNE 11 15 6 8 1011.6 - 0.0
21/10:00pm 27.3 - - - - NNE 17 28 9 15 1011.3 - 0.0
21/09:30pm 27.3 - - - - NNE 15 26 8 14 1010.9 - 0.0
21/09:00pm 27.6 - - - - NNE 13 22 7 12 1010.6 1010.6 0.0
21/08:30pm 27.6 - - - - NNE 13 20 7 11 1010.2 - 0.0
21/08:00pm 27.6 - - - - N 11 17 6 9 1009.8 - 0.0
21/07:30pm 27.7 - - - - N 11 19 6 10 1009.5 - 0.0
21/07:00pm 28.0 - - - - N 13 20 7 11 1009.2 - 0.0
21/06:30pm 28.8 - - - - N 15 24 8 13 1008.8 - 0.0
21/06:00pm 30.2 - - - - NNE 17 26 9 14 1008.5 1008.5 0.0
21/05:30pm 30.9 - - - - NNE 17 28 9 15 1008.4 - 0.0
21/05:00pm 31.4 - - - - N 15 24 8 13 1008.4 - 0.0
21/04:30pm 32.0 - - - - N 17 28 9 15 1008.5 - 0.0
21/04:00pm 31.7 - - - - N 15 24 8 13 1008.6 - 0.0
21/03:30pm 31.5 - - - - N 19 28 10 15 1008.9 - 0.0
21/03:00pm 32.4 - - - - N 17 26 9 14 1009.1 1009.1 0.0
21/02:30pm 32.0 - - - - N 15 26 8 14 1009.5 - 0.0
21/02:00pm 32.5 - - - - N 17 28 9 15 1010.0 - 0.0
21/01:30pm 32.9 - - - - N 15 28 8 15 1010.5 - 0.0
21/01:00pm 33.2 - - - - N 15 28 8 15 1011.0 - 0.0
21/12:30pm 33.1 - - - - NNE 17 30 9 16 1011.4 - 0.0
21/12:00pm 33.2 - - - - NE 19 30 10 16 1011.9 1011.9 0.0
21/11:30am 32.7 - - - - NE 15 28 8 15 1012.4 - 0.0
21/11:00am 32.3 - - - - ENE 13 22 7 12 1012.7 - 0.0
21/10:30am 32.0 - - - - NE 15 24 8 13 1012.9 - 0.0
21/10:00am 31.2 - - - - NE 15 20 8 11 1013.1 - 0.0
21/09:30am 30.3 - - - - ENE 9 17 5 9 1013.1 - 0.0
21/09:00am 30.0 - - - - E 13 17 7 9 1013.1 1013.1 0.0
21/08:30am 28.8 - - - - E 13 19 7 10 1012.8 - 0.0
21/08:00am 27.7 - - - - ESE 9 13 5 7 1012.5 - 0.0
21/07:30am 26.2 - - - - ESE 7 9 4 5 1012.5 - 0.0
21/06:30am 24.2 - - - - SE 7 9 4 5 1011.9 - 0.0
21/06:00am 24.6 - - - - SSE 7 9 4 5 1011.5 1011.5 0.0
21/05:30am 25.8 - - - - E 7 13 4 7 1011.5 - 0.0
21/05:00am 26.4 - - - - ENE 13 17 7 9 1011.2 - 0.0
21/04:30am 25.5 - - - - E 7 13 4 7 1010.8 - 0.0
21/04:00am 26.0 - - - - ENE 11 15 6 8 1010.7 - 0.0
21/03:30am 25.3 - - - - CALM 0 0 0 0 1010.7 - 0.0
21/03:00am 25.8 - - - - CALM 0 0 0 0 1011.0 1011.0 0.0
21/02:30am 26.1 - - - - CALM 0 6 0 3 1011.2 - 0.0
21/02:00am 26.4 - - - - NE 4 7 2 4 1011.5 - 0.0
21/01:30am 26.6 - - - - NE 6 9 3 5 1011.7 - 0.0
21/01:00am 27.2 - - - - NE 7 11 4 6 1011.8 - 0.0
21/12:30am 27.2 - - - - NE 11 15 6 8 1011.9 - 0.0
21/12:00am 27.1 - - - - NE 11 13 6 7 1012.0 1012.0 0.0
 
Date/Time
CST
Temp
°C
App
Temp
°C
Dew
Point
°C
Rel
Hum
%
Delta-T
°C
Wind Press
QNH
hPa
Press
MSL
hPa
Rain since
9am
mm
Dir  Spd
km/h
Gust
km/h
Spd
kts
Gust
kts
20/11:30pm 27.6 - - - - ENE 15 19 8 10 1012.2 - 0.0
20/11:00pm 26.9 - - - - NE 11 15 6 8 1012.1 - 0.0
20/10:30pm 27.1 - - - - NNE 6 9 3 5 1011.9 - 0.0
20/10:00pm 27.4 - - - - N 6 11 3 6 1011.7 - 0.0
20/09:30pm 27.7 - - - - NNE 13 20 7 11 1011.2 - 0.0
20/09:00pm 27.8 - - - - NNE 11 19 6 10 1011.0 1011.0 0.0
20/08:30pm 27.9 - - - - N 11 20 6 11 1010.7 - 0.0
20/08:00pm 28.0 - - - - N 11 19 6 10 1010.5 - 0.0
20/07:30pm 28.6 - - - - N 17 28 9 15 1010.0 - 0.0
20/07:00pm 28.9 - - - - N 13 20 7 11 1009.9 - 0.0
20/06:30pm 29.2 - - - - N 11 22 6 12 1009.5 - 0.0
20/06:00pm 29.6 - - - - N 15 24 8 13 1009.1 1009.1 0.0
20/05:30pm 30.5 - - - - N 15 22 8 12 1008.8 - 0.0
20/05:00pm 31.2 - - - - NNW 15 22 8 12 1008.8 - 0.0
20/04:30pm 32.5 - - - - NNW 15 20 8 11 1008.8 - 0.0
20/04:00pm 32.7 - - - - NNW 15 20 8 11 1009.0 - 0.0
20/03:30pm 33.3 - - - - NNW 15 24 8 13 1009.1 - 0.0
20/03:00pm 33.8 - - - - NNW 19 28 10 15 1009.4 1009.4 0.0
20/02:30pm 33.1 - - - - NNW 13 20 7 11 1009.7 - 0.0
20/02:00pm 33.5 - - - - N 13 22 7 12 1010.1 - 0.0
20/01:30pm 33.9 - - - - N 11 19 6 10 1010.5 - 0.0
20/01:00pm 34.2 - - - - NNE 17 28 9 15 1011.0 - 0.0
20/12:30pm 33.2 - - - - NE 20 28 11 15 1011.5 - 0.0
20/12:00pm 32.7 - - - - NE 17 24 9 13 1012.1 1012.1 0.0
20/11:30am 33.4 - - - - ENE 17 22 9 12 1012.5 - 0.0
20/11:00am 32.9 - - - - NE 17 24 9 13 1013.0 - 0.0
20/10:30am 31.9 - - - - E 20 26 11 14 1013.5 - 0.0
20/10:00am 31.0 - - - - ESE 20 30 11 16 1013.7 - 0.0
20/09:30am 30.7 - - - - ESE 17 24 9 13 1013.7 - 0.0
20/09:00am 29.0 - - - - SSE 9 15 5 8 1013.8 1013.8 0.6
20/08:30am 27.5 - - - - SSE 11 15 6 8 1013.5 - 0.6
20/08:00am 26.3 - - - - SSE 7 9 4 5 1013.2 - 0.6
20/07:30am 25.0 - - - - S 7 9 4 5 1013.0 - 0.6
20/07:00am 23.7 - - - - S 6 7 3 4 1012.7 - 0.6
20/06:30am 23.5 - - - - S 7 7 4 4 1012.4 - 0.6
20/06:00am 23.5 - - - - S 7 9 4 5 1012.1 1012.1 0.6
20/05:30am 23.6 - - - - S 6 9 3 5 1011.9 - 0.6
20/05:00am 24.0 - - - - CALM 0 0 0 0 1011.8 - 0.4
20/04:30am 24.6 - - - - CALM 0 0 0 0 1011.6 - 0.4
20/04:00am 25.3 - - - - SE 7 11 4 6 1011.6 - 0.4
20/03:30am 25.7 - - - - ENE 9 11 5 6 1011.7 - 0.4
20/03:00am 25.9 - - - - NE 11 15 6 8 1011.8 1011.8 0.4
20/02:30am 25.9 - - - - NE 9 15 5 8 1012.0 - 0.4
20/02:00am 25.2 - - - - NE 9 15 5 8 1012.3 - 0.4
20/01:30am 26.1 - - - - NE 17 22 9 12 1012.7 - 0.0
20/01:00am 27.2 - - - - NNE 13 20 7 11 1013.0 - 0.0
20/12:30am 27.5 - - - - NE 15 22 8 12 1013.2 - 0.0
20/12:00am 27.1 - - - - NE 11 17 6 9 1013.4 1013.4 0.0
 
Date/Time
CST
Temp
°C
App
Temp
°C
Dew
Point
°C
Rel
Hum
%
Delta-T
°C
Wind Press
QNH
hPa
Press
MSL
hPa
Rain since
9am
mm
Dir  Spd
km/h
Gust
km/h
Spd
kts
Gust
kts
19/11:30pm 26.8 - - - - NE 11 19 6 10 1013.5 - 0.0
19/11:00pm 26.9 - - - - NNE 9 15 5 8 1013.7 - 0.0
19/10:30pm 27.1 - - - - NNE 7 13 4 7 1013.6 - 0.0
19/10:00pm 27.3 - - - - N 9 19 5 10 1013.2 - 0.0
19/09:30pm 27.5 - - - - NNE 15 24 8 13 1012.7 - 0.0
19/09:00pm 27.6 - - - - NNE 15 24 8 13 1012.3 1012.3 0.0
19/08:30pm 27.8 - - - - N 11 19 6 10 1012.0 - 0.0
19/08:00pm 27.9 - - - - N 11 17 6 9 1011.6 - 0.0
19/07:30pm 28.2 - - - - N 11 20 6 11 1011.2 - 0.0
19/07:00pm 28.8 - - - - NNE 13 20 7 11 1010.6 - 0.0
19/06:30pm 29.2 - - - - N 11 20 6 11 1010.2 - 0.0
19/06:00pm 30.0 - - - - N 15 24 8 13 1009.9 1009.9 0.0
19/05:30pm 30.5 - - - - N 15 26 8 14 1009.6 - 0.0
19/05:00pm 31.2 - - - - NNW 15 24 8 13 1009.4 - 0.0
19/04:30pm 31.6 - - - - N 17 26 9 14 1009.2 - 0.0
19/04:00pm 31.9 - - - - N 17 28 9 15 1009.5 - 0.0
19/03:30pm 32.5 - - - - N 17 26 9 14 1009.8 - 0.0
19/03:00pm 33.5 - - - - N 15 22 8 12 1010.1 1010.1 0.0
19/02:30pm 33.1 - - - - N 15 24 8 13 1010.5 - 0.0
19/02:00pm 33.0 - - - - NNW 15 22 8 12 1011.0 - 0.0
19/01:30pm 32.5 - - - - N 17 28 9 15 1011.5 - 0.0
19/01:00pm 34.0 - - - - NNE 15 22 8 12 1012.0 - 0.0
19/12:30pm 33.6 - - - - NNE 17 22 9 12 1012.5 - 0.0
19/12:00pm 33.1 - - - - NE 17 26 9 14 1013.1 1013.1 0.0
19/11:30am 33.4 - - - - NE 15 22 8 12 1013.5 - 0.0
19/11:00am 32.6 - - - - ENE 15 26 8 14 1014.1 - 0.0
19/10:30am 31.0 - - - - E 11 17 6 9 1014.4 - 0.0

Latest Capital City Observations: Canberra | Sydney | Melbourne | Brisbane | Adelaide | Perth | Hobart | Darwin

Other Formats:

Comma delimited format used in spreadsheet applications
http://www.bom.gov.au/fwo/IDD60901/IDD60901.94127.axf

JavaScript Object Notation format (JSON) in row-major order
http://www.bom.gov.au/fwo/IDD60901/IDD60901.94127.json